Time;durP1;ratioP1;P1;durP2;ratioP2;P2;SDS_P1;SDS_P2;PMS_P1;PMS_P2;Temp;Humidity;BMP_temperature;BMP_pressure;BME280_temperature;BME280_humidity;BME280_pressure;Samples;Min_cycle;Max_cycle;Signal;HPM_P1;HPM_P2
2021/04/15 00:01:29;;;;;;;;;;;;;;;-1.09;100.00;102021.88;5074412;28;19931;-70
2021/04/15 00:03:55;;;;;;;;;;;;;;;-1.11;100.00;102021.00;5091848;28;19925;-70
2021/04/15 00:06:23;;;;;;;;;;;;;;;-1.13;100.00;102025.47;5092652;28;19938;-70
2021/04/15 00:08:49;;;;;;;;;;;;;;;-1.15;100.00;102018.38;5092419;28;19963;-70
2021/04/15 00:11:16;;;;;;;;;;;;;;;-1.17;100.00;102017.53;5092003;28;19924;-69
2021/04/15 00:13:44;;;;;;;;;;;;;;;-1.14;100.00;102015.69;5091540;28;20010;-70
2021/04/15 00:16:11;;;;;;;;;;;;;;;-1.10;100.00;102019.22;5092115;28;19928;-70
2021/04/15 00:18:38;;;;;;;;;;;;;;;-1.08;100.00;102014.72;5107691;28;20208;-70
2021/04/15 00:21:04;;;;;;;;;;;;;;;-1.07;100.00;102017.41;5092005;28;19952;-71
2021/04/15 00:23:30;;;;;;;;;;;;;;;-1.08;100.00;102014.72;5091945;28;20018;-69
2021/04/15 00:25:56;;;;;;;;;;;;;;;-1.08;100.00;102010.31;5091579;28;19925;-70
2021/04/15 00:28:22;;;;;;;;;;;;;;;-1.09;100.00;102015.66;5092313;28;19924;-69
2021/04/15 00:30:48;;;;;;;;;;;;;;;-1.09;100.00;102013.88;5091739;28;19974;-69
2021/04/15 00:33:13;;;;;;;;;;;;;;;-1.06;100.00;102019.16;5091958;28;19949;-70
2021/04/15 00:35:41;;;;;;;;;;;;;;;-1.04;100.00;102016.50;5073375;28;19943;-70
2021/04/15 00:38:07;;;;;;;;;;;;;;;-1.05;100.00;102015.59;5091788;28;19924;-70
2021/04/15 00:40:34;;;;;;;;;;;;;;;-1.06;100.00;102012.94;5091367;28;20411;-70
2021/04/15 00:43:00;;;;;;;;;;;;;;;-1.06;100.00;102005.81;5091408;28;20126;-70
2021/04/15 00:45:28;;;;;;;;;;;;;;;-1.06;100.00;102002.28;5053621;28;19990;-70
2021/04/15 00:47:59;;;;;;;;;;;;;;;-1.10;100.00;102004.09;5071610;28;19925;-71
2021/04/15 00:50:27;;;;;;;;;;;;;;;-1.12;100.00;102003.25;5091517;28;19927;-71
2021/04/15 00:52:55;;;;;;;;;;;;;;;-1.10;100.00;102003.22;5073238;28;19956;-70
2021/04/15 00:55:23;;;;;;;;;;;;;;;-1.12;100.00;102002.34;5073318;28;19976;-70
2021/04/15 00:57:49;;;;;;;;;;;;;;;-1.14;100.00;101998.84;5091536;28;19975;-70
2021/04/15 01:00:17;;;;;;;;;;;;;;;-1.15;100.00;101999.72;5091172;28;19924;-71
2021/04/15 01:02:43;;;;;;;;;;;;;;;-1.20;100.00;101992.69;5091205;28;19924;-70
2021/04/15 01:05:12;;;;;;;;;;;;;;;-1.21;100.00;102003.38;5091639;28;19931;-70
2021/04/15 01:07:38;;;;;;;;;;;;;;;-1.26;100.00;102000.72;5091271;28;20414;-70
2021/04/15 01:10:06;;;;;;;;;;;;;;;-1.28;100.00;102001.66;5090603;28;19924;-70
2021/04/15 01:12:37;;;;;;;;;;;;;;;-1.29;100.00;102000.78;5091241;28;19970;-70
2021/04/15 01:15:09;;;;;;;;;;;;;;;-1.27;100.00;101998.09;5072896;28;19924;-70
2021/04/15 01:17:38;;;;;;;;;;;;;;;-1.27;100.00;102007.00;5091091;28;19928;-70
2021/04/15 01:20:31;;;;;;;;;;;;;;;-1.30;100.00;101993.69;5090493;28;19924;-70
2021/04/15 01:23:08;;;;;;;;;;;;;;;-1.31;100.00;101994.59;5091107;28;20008;-70
2021/04/15 01:25:58;;;;;;;;;;;;;;;-1.32;100.00;102000.81;5090851;28;19927;-70
2021/04/15 01:28:45;;;;;;;;;;;;;;;-1.33;100.00;101996.38;5075330;28;19925;-70
2021/04/15 01:31:14;;;;;;;;;;;;;;;-1.34;100.00;101997.28;5090973;28;20449;-71
2021/04/15 01:33:42;;;;;;;;;;;;;;;-1.35;100.00;101996.41;5090924;28;19924;-70
2021/04/15 01:36:10;;;;;;;;;;;;;;;-1.33;100.00;101993.72;5090940;28;19924;-70
2021/04/15 01:38:38;;;;;;;;;;;;;;;-1.32;100.00;101995.50;5090622;28;19928;-70
2021/04/15 01:41:06;;;;;;;;;;;;;;;-1.31;100.00;101989.28;5090737;28;20414;-70
2021/04/15 01:43:35;;;;;;;;;;;;;;;-1.28;100.00;101986.56;5091059;28;19969;-70
2021/04/15 01:46:03;;;;;;;;;;;;;;;-1.28;100.00;101985.66;5090610;28;20013;-70
2021/04/15 01:48:33;;;;;;;;;;;;;;;-1.31;100.00;101986.63;5091130;28;19955;-70
2021/04/15 01:51:02;;;;;;;;;;;;;;;-1.31;100.00;101981.28;5090587;28;19924;-70
2021/04/15 01:53:29;;;;;;;;;;;;;;;-1.31;100.00;101981.28;5090990;28;19977;-69
2021/04/15 01:55:58;;;;;;;;;;;;;;;-1.30;100.00;101983.03;5089935;28;19924;-71
2021/04/15 01:58:26;;;;;;;;;;;;;;;-1.31;100.00;101986.63;5072721;28;20011;-70
2021/04/15 02:00:59;;;;;;;;;;;;;;;-1.30;100.00;101992.81;5090491;28;19924;-70
2021/04/15 02:03:28;;;;;;;;;;;;;;;-1.32;100.00;101982.16;5091033;28;20352;-70
2021/04/15 02:05:55;;;;;;;;;;;;;;;-1.35;100.00;101993.75;5090580;28;19939;-70
2021/04/15 02:08:22;;;;;;;;;;;;;;;-1.37;100.00;101989.34;5091153;28;19928;-71
2021/04/15 02:10:50;;;;;;;;;;;;;;;-1.36;100.00;101994.63;5072508;28;20484;-70
2021/04/15 02:13:17;;;;;;;;;;;;;;;-1.38;100.00;101995.56;5090525;28;19986;-71
2021/04/15 02:15:45;;;;;;;;;;;;;;;-1.40;100.00;101992.91;5090028;28;19963;-70
2021/04/15 02:18:15;;;;;;;;;;;;;;;-1.39;100.00;101993.78;5090102;28;20033;-70
2021/04/15 02:20:41;;;;;;;;;;;;;;;-1.39;100.00;101996.44;5092174;28;19970;-70
2021/04/15 02:23:09;;;;;;;;;;;;;;;-1.39;100.00;101999.09;5076237;28;20357;-70
2021/04/15 02:25:39;;;;;;;;;;;;;;;-1.37;100.00;101995.53;5094053;28;19924;-71
2021/04/15 02:28:08;;;;;;;;;;;;;;;-1.33;100.00;101998.19;5094089;28;19924;-71
2021/04/15 02:30:36;;;;;;;;;;;;;;;-1.34;100.00;101994.63;5094318;28;19970;-70
2021/04/15 02:33:05;;;;;;;;;;;;;;;-1.38;100.00;101990.22;5093774;28;20311;-70
2021/04/15 02:35:34;;;;;;;;;;;;;;;-1.39;100.00;101988.44;5093817;28;19955;-70
2021/04/15 02:38:02;;;;;;;;;;;;;;;-1.40;100.00;101984.03;5075745;28;19975;-71
2021/04/15 02:40:30;;;;;;;;;;;;;;;-1.41;100.00;101988.47;5094317;28;20364;-70
2021/04/15 02:42:57;;;;;;;;;;;;;;;-1.41;100.00;101991.13;5093650;28;20374;-70
2021/04/15 02:45:29;;;;;;;;;;;;;;;-1.41;100.00;101992.94;5075720;28;19924;-71
2021/04/15 02:47:59;;;;;;;;;;;;;;;-1.42;100.00;101994.69;5093756;28;19977;-70
2021/04/15 02:50:25;;;;;;;;;;;;;;;-1.42;100.00;101993.81;5094032;28;19928;-70
2021/04/15 02:52:55;;;;;;;;;;;;;;;-1.42;100.00;101988.50;5093535;28;20411;-70
2021/04/15 02:55:25;;;;;;;;;;;;;;;-1.46;100.00;101989.44;5093741;28;19924;-70
2021/04/15 02:57:54;;;;;;;;;;;;;;;-1.48;100.00;101991.22;5093710;28;20009;-70
2021/04/15 03:00:22;;;;;;;;;;;;;;;-1.52;100.00;101988.59;5093926;28;19925;-70
2021/04/15 03:02:56;;;;;;;;;;;;;;;-1.56;100.00;101992.19;5093484;28;20387;-70
2021/04/15 03:05:23;;;;;;;;;;;;;;;-1.58;100.00;101983.31;5093681;28;19963;-70
2021/04/15 03:07:51;;;;;;;;;;;;;;;-1.61;100.00;101994.03;5093308;28;19924;-70
2021/04/15 03:10:18;;;;;;;;;;;;;;;-1.63;100.00;101985.19;5093464;28;19967;-70
2021/04/15 03:12:47;;;;;;;;;;;;;;;-1.66;100.00;101987.84;5092941;28;20007;-70
2021/04/15 03:15:15;;;;;;;;;;;;;;;-1.68;100.00;101992.31;5093286;28;19924;-71
2021/04/15 03:17:48;;;;;;;;;;;;;;;-1.71;100.00;101998.56;5093039;28;20402;-70
2021/04/15 03:20:15;;;;;;;;;;;;;;;-1.74;100.00;101987.94;5092946;28;19924;-70
2021/04/15 03:22:45;;;;;;;;;;;;;;;-1.74;100.00;101992.38;5075171;28;19956;-70
2021/04/15 03:25:11;;;;;;;;;;;;;;;-1.76;100.00;101989.72;5092730;28;19928;-70
2021/04/15 03:27:39;;;;;;;;;;;;;;;-1.77;100.00;101993.28;5093402;28;19931;-70
2021/04/15 03:30:08;;;;;;;;;;;;;;;-1.79;100.00;101989.78;5092901;28;19924;-70
2021/04/15 03:32:37;;;;;;;;;;;;;;;-1.80;100.00;101992.41;5092138;28;19924;-70
2021/04/15 03:35:10;;;;;;;;;;;;;;;-1.77;100.00;101987.09;5092646;28;20009;-70
2021/04/15 03:37:39;;;;;;;;;;;;;;;-1.76;100.00;101994.19;5092935;28;19931;-70
2021/04/15 03:40:07;;;;;;;;;;;;;;;-1.76;100.00;101992.41;5092699;28;19924;-70
2021/04/15 03:42:36;;;;;;;;;;;;;;;-1.76;100.00;101987.06;5092407;28;19967;-71
2021/04/15 03:45:04;;;;;;;;;;;;;;;-1.73;100.00;101991.47;5074442;28;19924;-70
2021/04/15 03:47:32;;;;;;;;;;;;;;;-1.72;100.00;101990.59;5092802;28;19924;-70
2021/04/15 03:49:59;;;;;;;;;;;;;;;-1.72;100.00;101994.13;5092092;28;19936;-70
2021/04/15 03:52:28;;;;;;;;;;;;;;;-1.69;100.00;101996.75;5092122;28;19931;-70
2021/04/15 03:55:00;;;;;;;;;;;;;;;-1.65;100.00;101992.28;5092278;28;19928;-70
2021/04/15 03:57:26;;;;;;;;;;;;;;;-1.61;100.00;101993.16;5074433;28;20020;-70
2021/04/15 03:59:55;;;;;;;;;;;;;;;-1.56;100.00;102000.19;5092511;28;19941;-71
2021/04/15 04:02:22;;;;;;;;;;;;;;;-1.50;100.00;101998.34;5092496;28;20013;-69
2021/04/15 04:04:52;;;;;;;;;;;;;;;-1.45;100.00;101999.19;5092464;28;20375;-70
2021/04/15 04:07:33;;;;;;;;;;;;;;;-1.40;100.00;102003.56;5092152;28;19935;-74
2021/04/15 04:10:01;;;;;;;;;;;;;;;-1.32;100.00;102005.25;5089398;28;19924;-70
2021/04/15 04:12:31;;;;;;;;;;;;;;;-1.26;100.00;102003.41;5092428;28;19924;-70
2021/04/15 04:14:59;;;;;;;;;;;;;;;-1.17;100.00;101998.88;5092019;28;19924;-69
2021/04/15 04:17:31;;;;;;;;;;;;;;;-1.10;100.00;101998.75;5092454;28;19931;-70
2021/04/15 04:19:57;;;;;;;;;;;;;;;-1.05;100.00;102004.06;5091968;28;19935;-70
2021/04/15 04:22:27;;;;;;;;;;;;;;;-0.98;100.00;102004.88;5091890;28;19924;-70
2021/04/15 04:24:56;;;;;;;;;;;;;;;-0.91;100.00;102004.78;5091941;28;19931;-70
2021/04/15 04:27:25;;;;;;;;;;;;;;;-0.85;100.00;102007.34;5073936;28;20275;-70
2021/04/15 04:29:53;;;;;;;;;;;;;;;-0.78;100.00;102012.59;5091487;28;19947;-70
2021/04/15 04:32:21;;;;;;;;;;;;;;;-0.73;100.00;102011.63;5069663;28;19928;-70
2021/04/15 04:34:50;;;;;;;;;;;;;;;-0.68;100.00;102007.13;5092073;28;19931;-70
2021/04/15 04:37:16;;;;;;;;;;;;;;;-0.63;100.00;102012.38;5091585;28;19931;-70
2021/04/15 04:39:42;;;;;;;;;;;;;;;-0.57;100.00;102012.31;5091345;28;19932;-70
2021/04/15 04:42:14;;;;;;;;;;;;;;;-0.48;100.00;102015.72;5091239;28;19963;-70
2021/04/15 04:44:41;;;;;;;;;;;;;;;-0.43;100.00;102024.56;5091422;28;20452;-70
2021/04/15 04:47:11;;;;;;;;;;;;;;;-0.33;100.00;102015.53;5091212;28;19931;-70
2021/04/15 04:49:39;;;;;;;;;;;;;;;-0.24;100.00;102020.72;5090245;28;19924;-70
2021/04/15 04:52:07;;;;;;;;;;;;;;;-0.15;100.00;102019.69;5090987;28;20504;-70
2021/04/15 04:54:37;;;;;;;;;;;;;;;-0.05;100.00;102020.44;5090930;28;19932;-70
2021/04/15 04:57:07;;;;;;;;;;;;;;;0.03;100.00;102021.19;5090658;28;19924;-70
2021/04/15 04:59:35;;;;;;;;;;;;;;;0.15;100.00;102028.97;5073199;28;19982;-70
2021/04/15 05:02:02;;;;;;;;;;;;;;;0.26;100.00;102019.91;5072435;28;19994;-70
2021/04/15 05:04:32;;;;;;;;;;;;;;;0.36;100.00;102026.88;5091055;28;20015;-70
2021/04/15 05:07:00;;;;;;;;;;;;;;;0.48;100.00;102021.28;5086879;28;19924;-70
2021/04/15 05:09:31;;;;;;;;;;;;;;;0.60;100.00;102021.94;5074721;28;19993;-69
2021/04/15 05:11:58;;;;;;;;;;;;;;;0.68;100.00;102022.69;5072025;28;20342;-70
2021/04/15 05:14:25;;;;;;;;;;;;;;;0.78;100.00;102023.41;5087245;28;19924;-70
2021/04/15 05:16:55;;;;;;;;;;;;;;;0.88;100.00;102032.13;5089912;28;20013;-70
2021/04/15 05:19:21;;;;;;;;;;;;;;;0.95;100.00;102021.28;5090393;28;19935;-70
2021/04/15 05:21:48;;;;;;;;;;;;;;;1.07;100.00;102021.91;5072941;28;20058;-70
2021/04/15 05:24:16;;;;;;;;;;;;;;;1.17;100.00;102018.13;5090777;28;19932;-71
2021/04/15 05:26:43;;;;;;;;;;;;;;;1.23;100.00;102020.69;5090654;28;19928;-70
2021/04/15 05:29:13;;;;;;;;;;;;;;;1.31;100.00;102018.72;5090576;28;20390;-70
2021/04/15 05:31:40;;;;;;;;;;;;;;;1.40;100.00;102017.63;5090911;28;19986;-69
2021/04/15 05:34:10;;;;;;;;;;;;;;;1.48;100.00;102020.13;5090578;28;20057;-70
2021/04/15 05:36:37;;;;;;;;;;;;;;;1.56;100.00;102018.16;5072547;28;19970;-70
2021/04/15 05:39:07;;;;;;;;;;;;;;;1.64;100.00;102018.00;5090457;28;19967;-70
2021/04/15 05:41:35;;;;;;;;;;;;;;;1.67;100.00;102016.13;5072918;28;20420;-70
2021/04/15 05:44:03;;;;;;;;;;;;;;;1.78;100.00;102023.91;5090631;28;20394;-70
2021/04/15 05:46:36;;;;;;;;;;;;;;;1.86;100.00;102023.75;5076075;28;20391;-71
2021/04/15 05:49:03;;;;;;;;;;;;;;;1.91;100.00;102023.59;5086322;28;19924;-71
2021/04/15 05:51:32;;;;;;;;;;;;;;;1.97;100.00;102023.47;5090793;28;20015;-71
2021/04/15 05:54:00;;;;;;;;;;;;;;;2.07;100.00;102032.16;5090311;28;20355;-71
2021/04/15 05:56:29;;;;;;;;;;;;;;;2.19;100.00;102031.84;5093109;28;20351;-71
2021/04/15 05:59:00;;;;;;;;;;;;;;;2.25;100.00;102030.81;5094441;28;20330;-71
2021/04/15 06:01:31;;;;;;;;;;;;;;;2.31;100.00;102031.53;5094578;28;19924;-71
2021/04/15 06:04:06;;;;;;;;;;;;;;;2.38;100.00;102029.59;5094854;28;19950;-71
2021/04/15 06:06:34;;;;;;;;;;;;;;;2.46;100.00;102030.25;5094604;28;19928;-71
2021/04/15 06:09:01;;;;;;;;;;;;;;;2.53;100.00;102035.47;5094500;28;20023;-71
2021/04/15 06:11:39;;;;;;;;;;;;;;;2.63;100.00;102032.50;5093606;28;20359;-71
2021/04/15 06:14:10;;;;;;;;;;;;;;;2.75;100.00;102028.56;5094322;28;20395;-70
2021/04/15 06:16:39;;;;;;;;;;;;;;;2.83;100.00;102036.41;5093774;28;20429;-70
2021/04/15 06:19:09;;;;;;;;;;;;;;;2.95;100.00;102037.88;5094143;28;19924;-70
2021/04/15 06:21:37;;;;;;;;;;;;;;;3.04;100.00;102040.28;5093649;28;19925;-71
2021/04/15 06:24:05;;;;;;;;;;;;;;;3.21;100.00;102034.44;5094055;28;20330;-71
2021/04/15 06:26:33;;;;;;;;;;;;;;;3.27;100.00;102034.25;5094066;28;19924;-71
2021/04/15 06:29:02;;;;;;;;;;;;;;;3.54;100.00;102037.03;5076474;28;19931;-71
2021/04/15 06:31:28;;;;;;;;;;;;;;;3.64;100.00;102024.19;5094468;28;19924;-71
2021/04/15 06:33:57;;;;;;;;;;;;;;;3.71;100.00;102033.81;5095873;28;19928;-70
2021/04/15 06:36:30;;;;;;;;;;;;;;;3.83;100.00;102036.09;5093639;28;19924;-71
2021/04/15 06:39:00;;;;;;;;;;;;;;;3.90;100.00;102026.06;5095666;28;19955;-71
2021/04/15 06:41:37;;;;;;;;;;;;;;;4.01;100.00;102023.88;5093429;28;19924;-70
2021/04/15 06:44:10;;;;;;;;;;;;;;;4.24;100.00;102029.44;5075021;28;19924;-71
2021/04/15 06:46:50;;;;;;;;;;;;;;;4.45;100.00;102023.31;5093699;28;20001;-71
2021/04/15 06:49:30;;;;;;;;;;;;;;;4.53;100.00;102028.44;5093745;28;19925;-70
2021/04/15 06:52:00;;;;;;;;;;;;;;;4.67;100.00;102026.09;5092661;28;19932;-70
2021/04/15 06:54:43;;;;;;;;;;;;;;;4.92;100.00;102021.63;5093421;28;19951;-71
2021/04/15 06:57:17;;;;;;;;;;;;;;;5.16;100.00;102014.50;5093013;28;19924;-71
2021/04/15 06:59:51;;;;;;;;;;;;;;;5.32;100.00;102007.56;5073512;28;19973;-71
2021/04/15 07:02:29;;;;;;;;;;;;;;;5.53;100.00;102011.25;5092125;28;20362;-71
2021/04/15 07:04:58;;;;;;;;;;;;;;;5.81;100.00;102023.63;5092858;28;19953;-71
2021/04/15 07:07:29;;;;;;;;;;;;;;;6.05;100.00;102017.31;5092180;28;19977;-72
2021/04/15 07:10:15;;;;;;;;;;;;;;;6.26;100.00;102015.53;5092445;28;19924;-72
2021/04/15 07:13:11;;;;;;;;;;;;;;;6.50;100.00;102006.34;5093266;28;19981;-72
2021/04/15 07:15:44;;;;;;;;;;;;;;;6.54;100.00;102010.66;5085863;28;19956;-72
2021/04/15 07:18:27;;;;;;;;;;;;;;;6.73;100.00;102003.59;5093936;28;20440;-72
2021/04/15 07:21:04;;;;;;;;;;;;;;;6.93;100.00;102008.97;5080258;28;19959;-72
2021/04/15 07:23:49;;;;;;;;;;;;;;;6.90;100.00;102013.66;5092279;28;19924;-72
2021/04/15 07:26:33;;;;;;;;;;;;;;;7.09;100.00;102010.97;5081694;28;19934;-72
2021/04/15 07:29:08;;;;;;;;;;;;;;;7.12;100.00;102008.13;5080671;28;20033;-71
2021/04/15 07:31:42;;;;;;;;;;;;;;;7.19;100.00;102015.00;5074680;28;20019;-71
2021/04/15 07:34:25;;;;;;;;;;;;;;;7.21;100.00;102013.09;5092258;28;19964;-71
2021/04/15 07:37:15;;;;;;;;;;;;;;;7.07;100.00;102012.84;5092775;28;19985;-71
2021/04/15 07:39:51;;;;;;;;;;;;;;;7.23;100.00;102010.31;5082073;28;20391;-71
2021/04/15 07:42:28;;;;;;;;;;;;;;;7.48;100.00;102012.75;5092252;28;19924;-71
2021/04/15 07:44:56;;;;;;;;;;;;;;;7.93;100.00;102005.19;5092283;28;20398;-71
2021/04/15 07:47:31;;;;;;;;;;;;;;;8.29;96.37;102013.25;5092246;28;19931;-71
2021/04/15 07:50:02;;;;;;;;;;;;;;;8.15;92.77;102008.56;5091855;28;19931;-71
2021/04/15 07:52:51;;;;;;;;;;;;;;;8.36;90.98;102013.81;5088787;28;20057;-71
2021/04/15 07:55:30;;;;;;;;;;;;;;;8.12;87.29;102005.13;5075896;28;19935;-71
2021/04/15 07:58:05;;;;;;;;;;;;;;;8.21;92.00;102004.66;5091683;28;19940;-71
2021/04/15 08:00:37;;;;;;;;;;;;;;;8.26;89.10;102009.81;5090338;28;19948;-71
2021/04/15 08:03:23;;;;;;;;;;;;;;;8.44;89.27;102014.28;5091737;28;19963;-71
2021/04/15 08:05:56;;;;;;;;;;;;;;;8.48;83.96;102012.34;5078402;28;20393;-71
2021/04/15 08:08:35;;;;;;;;;;;;;;;8.39;85.86;102019.06;5091910;28;20096;-71
2021/04/15 08:11:09;;;;;;;;;;;;;;;8.67;86.74;102012.25;5091258;28;19968;-71
2021/04/15 08:13:47;;;;;;;;;;;;;;;8.85;83.12;102024.81;5091096;28;19977;-71
2021/04/15 08:16:28;;;;;;;;;;;;;;;9.07;80.67;102020.94;5091549;28;19927;-71
2021/04/15 08:19:01;;;;;;;;;;;;;;;9.04;76.85;102023.81;5068347;28;20024;-71
2021/04/15 08:21:30;;;;;;;;;;;;;;;9.12;74.83;102018.00;5090636;28;19931;-71
2021/04/15 08:24:15;;;;;;;;;;;;;;;8.77;62.89;102018.06;5091651;28;19928;-71
2021/04/15 08:27:02;;;;;;;;;;;;;;;8.88;64.42;102018.34;5091847;28;19963;-70
2021/04/15 08:29:40;;;;;;;;;;;;;;;8.90;57.89;102018.28;5091795;28;19928;-70
2021/04/15 08:32:13;;;;;;;;;;;;;;;8.87;59.73;102014.78;5091605;28;19924;-70
2021/04/15 08:34:44;;;;;;;;;;;;;;;9.19;54.11;102005.84;5091567;28;20014;-71
2021/04/15 08:37:18;;;;;;;;;;;;;;;9.37;53.27;102010.25;5091110;28;20357;-71
2021/04/15 08:39:50;;;;;;;;;;;;;;;9.15;52.98;102007.88;5073227;28;19932;-70
2021/04/15 08:42:34;;;;;;;;;;;;;;;9.42;52.06;102011.84;5091048;28;20299;-71
2021/04/15 08:45:14;;;;;;;;;;;;;;;9.86;53.21;102009.31;5072626;28;19963;-71
2021/04/15 08:47:58;;;;;;;;;;;;;;;9.91;49.11;102005.47;5088774;28;19982;-71
2021/04/15 08:50:36;;;;;;;;;;;;;;;9.86;49.54;102009.31;5090635;28;19967;-71
2021/04/15 08:53:10;;;;;;;;;;;;;;;9.52;49.61;102010.38;5084670;28;19928;-70
2021/04/15 08:55:38;;;;;;;;;;;;;;;9.42;50.07;102004.59;5090364;28;19931;-70
2021/04/15 08:58:21;;;;;;;;;;;;;;;9.09;48.47;102016.31;5090713;28;19931;-70
2021/04/15 09:00:53;;;;;;;;;;;;;;;9.44;49.59;102010.78;5091406;28;19970;-71
2021/04/15 09:03:23;;;;;;;;;;;;;;;9.55;48.27;102016.50;5089774;28;19989;-71
2021/04/15 09:06:04;;;;;;;;;;;;;;;9.74;48.79;102015.44;5090639;28;19924;-71
2021/04/15 09:08:33;;;;;;;;;;;;;;;9.53;46.81;101998.56;5071037;28;20025;-71
2021/04/15 09:11:04;;;;;;;;;;;;;;;9.95;48.77;102004.31;5090123;28;19931;-71
2021/04/15 09:13:35;;;;;;;;;;;;;;;10.12;47.73;102001.47;5090736;28;19931;-71
2021/04/15 09:16:23;;;;;;;;;;;;;;;10.19;45.68;101997.44;5090851;28;19928;-71
2021/04/15 09:18:52;;;;;;;;;;;;;;;10.11;43.92;102004.28;5088461;28;19969;-71
2021/04/15 09:21:23;;;;;;;;;;;;;;;10.27;46.50;102001.53;5090853;28;19967;-71
2021/04/15 09:23:51;;;;;;;;;;;;;;;9.63;42.95;102001.63;5090895;28;19931;-71
2021/04/15 09:26:22;;;;;;;;;;;;;;;9.35;44.47;102009.47;5090297;28;19928;-71
2021/04/15 09:29:02;;;;;;;;;;;;;;;9.34;43.99;102009.53;5072638;28;19950;-71
2021/04/15 09:31:33;;;;;;;;;;;;;;;9.08;42.87;102016.41;5087769;28;19928;-71
2021/04/15 09:34:17;;;;;;;;;;;;;;;8.66;42.57;102018.63;5090298;28;19968;-71
2021/04/15 09:36:49;;;;;;;;;;;;;;;8.92;42.41;102010.94;5090661;28;19967;-70
2021/04/15 09:39:34;;;;;;;;;;;;;;;8.90;40.49;102008.34;5072281;28;20360;-71
2021/04/15 09:42:05;;;;;;;;;;;;;;;9.37;41.59;101996.72;5090821;28;19968;-71
2021/04/15 09:44:36;;;;;;;;;;;;;;;9.64;43.74;102008.78;5090622;28;19962;-71
2021/04/15 09:47:06;;;;;;;;;;;;;;;9.70;41.14;102005.72;5090399;28;19989;-72
2021/04/15 09:49:37;;;;;;;;;;;;;;;9.58;41.17;102011.84;5090078;28;20382;-71
2021/04/15 09:52:19;;;;;;;;;;;;;;;9.11;41.03;102008.13;5090292;28;20363;-71
2021/04/15 09:54:51;;;;;;;;;;;;;;;8.91;41.70;102010.06;5090369;28;20367;-73
2021/04/15 09:57:25;;;;;;;;;;;;;;;9.02;42.28;102017.63;5089690;28;19935;-71
2021/04/15 10:00:08;;;;;;;;;;;;;;;9.13;42.31;102003.50;5070411;28;19924;-71
2021/04/15 10:02:36;;;;;;;;;;;;;;;9.11;42.74;102022.53;5071693;28;19924;-71
2021/04/15 10:05:03;;;;;;;;;;;;;;;9.07;42.46;102007.41;5090215;28;19974;-71
2021/04/15 10:07:32;;;;;;;;;;;;;;;9.17;43.54;102002.38;5090122;28;20414;-72
2021/04/15 10:10:11;;;;;;;;;;;;;;;9.23;43.93;101995.72;5090509;28;20018;-70
2021/04/15 10:12:46;;;;;;;;;;;;;;;8.91;42.58;102004.66;5090080;28;19931;-71
2021/04/15 10:15:26;;;;;;;;;;;;;;;8.91;43.70;101995.66;5089695;28;20372;-71
2021/04/15 10:17:58;;;;;;;;;;;;;;;8.80;43.70;102007.06;5072383;28;19931;-71
2021/04/15 10:20:30;;;;;;;;;;;;;;;9.07;45.26;101985.72;5090295;28;19924;-71
2021/04/15 10:23:11;;;;;;;;;;;;;;;8.83;43.18;101996.97;5090120;28;19971;-71
2021/04/15 10:25:39;;;;;;;;;;;;;;;8.85;43.80;101999.56;5087941;28;19971;-71
2021/04/15 10:28:11;;;;;;;;;;;;;;;8.18;44.30;101994.88;5089986;28;19924;-71
2021/04/15 10:30:53;;;;;;;;;;;;;;;8.27;46.04;102004.38;5054142;28;20114;-71
2021/04/15 10:33:37;;;;;;;;;;;;;;;8.65;45.98;101992.53;5089608;28;19931;-71
2021/04/15 10:36:17;;;;;;;;;;;;;;;8.88;44.88;101989.47;5089842;28;19924;-72
2021/04/15 10:38:53;;;;;;;;;;;;;;;9.07;43.58;101977.59;5086671;28;19982;-71
2021/04/15 10:41:35;;;;;;;;;;;;;;;8.98;43.24;101991.66;5090943;28;19924;-70
2021/04/15 10:44:15;;;;;;;;;;;;;;;8.78;42.91;101979.19;5079205;28;20418;-71
2021/04/15 10:46:44;;;;;;;;;;;;;;;9.15;44.99;101980.78;5093767;28;19932;-71
2021/04/15 10:49:16;;;;;;;;;;;;;;;9.16;44.60;101974.38;5093118;28;19924;-71
2021/04/15 10:51:49;;;;;;;;;;;;;;;9.08;44.21;101973.94;5093289;28;19967;-71
2021/04/15 10:54:24;;;;;;;;;;;;;;;8.99;43.54;101969.03;5093480;28;20422;-71
2021/04/15 10:56:52;;;;;;;;;;;;;;;8.94;44.49;101984.66;5092862;28;19977;-71
2021/04/15 10:59:30;;;;;;;;;;;;;;;8.63;44.50;101979.06;5089486;28;19972;-71
2021/04/15 11:02:08;;;;;;;;;;;;;;;8.70;44.37;101983.19;5092814;28;19924;-71
2021/04/15 11:04:33;;;;;;;;;;;;;;;8.83;45.82;101971.69;5074142;28;19985;-71
2021/04/15 11:07:06;;;;;;;;;;;;;;;9.02;47.22;101980.56;5093386;28;20387;-71
2021/04/15 11:09:34;;;;;;;;;;;;;;;9.08;47.96;101983.91;5093286;28;20044;-71
2021/04/15 11:12:03;;;;;;;;;;;;;;;8.94;47.33;101971.09;5093172;28;19924;-72
2021/04/15 11:14:33;;;;;;;;;;;;;;;8.97;50.46;101973.66;5092167;28;19974;-71
2021/04/15 11:16:59;;;;;;;;;;;;;;;9.23;52.11;101971.34;5083641;28;20395;-72
2021/04/15 11:19:27;;;;;;;;;;;;;;;9.16;49.20;101966.25;5091274;28;20374;-72
2021/04/15 11:21:56;;;;;;;;;;;;;;;8.83;49.91;101980.72;5091549;28;19928;-71
2021/04/15 11:24:30;;;;;;;;;;;;;;;8.95;50.73;101972.88;5092704;28;19934;-71
2021/04/15 11:26:57;;;;;;;;;;;;;;;9.10;50.09;101966.63;5073117;28;19943;-71
2021/04/15 11:29:25;;;;;;;;;;;;;;;9.23;48.33;101960.50;5077713;28;19932;-72
2021/04/15 11:31:51;;;;;;;;;;;;;;;9.57;48.96;101954.06;5092392;28;19959;-72
2021/04/15 11:34:20;;;;;;;;;;;;;;;9.68;47.78;101961.56;5091549;28;20023;-72
2021/04/15 11:36:56;;;;;;;;;;;;;;;9.61;46.07;101949.34;5074274;28;19952;-72
2021/04/15 11:39:23;;;;;;;;;;;;;;;9.82;47.21;101950.78;5072180;28;19971;-71
2021/04/15 11:41:51;;;;;;;;;;;;;;;10.35;46.55;101939.56;5091975;28;20441;-72
2021/04/15 11:44:25;;;;;;;;;;;;;;;10.55;44.92;101944.66;5093007;28;19932;-72
2021/04/15 11:46:52;;;;;;;;;;;;;;;10.45;45.03;101939.84;5091961;28;19924;-72
2021/04/15 11:49:23;;;;;;;;;;;;;;;9.92;45.40;101940.25;5092255;28;20027;-72
2021/04/15 11:51:56;;;;;;;;;;;;;;;10.10;45.55;101937.41;5092137;28;19955;-72
2021/04/15 11:54:27;;;;;;;;;;;;;;;10.13;44.66;101923.66;5088984;28;19939;-72
2021/04/15 11:56:52;;;;;;;;;;;;;;;9.96;45.11;101930.97;5092014;28;19936;-71
2021/04/15 11:59:20;;;;;;;;;;;;;;;9.94;43.80;101930.22;5091019;28;19958;-72
2021/04/15 12:01:48;;;;;;;;;;;;;;;9.59;42.60;101935.84;5091547;28;19931;-72
2021/04/15 12:04:16;;;;;;;;;;;;;;;9.89;42.93;101933.19;5091150;28;20387;-72
2021/04/15 12:06:55;;;;;;;;;;;;;;;10.04;42.62;101925.09;5073307;28;19932;-70
2021/04/15 12:09:24;;;;;;;;;;;;;;;9.90;41.59;101928.66;5091608;28;19924;-72
2021/04/15 12:11:55;;;;;;;;;;;;;;;10.01;41.55;101923.44;5090725;28;21473;-71
2021/04/15 12:14:21;;;;;;;;;;;;;;;9.64;41.35;101916.63;5073187;28;19928;-71
2021/04/15 12:16:52;;;;;;;;;;;;;;;9.69;42.76;101917.22;5090826;28;19978;-71
2021/04/15 12:19:22;;;;;;;;;;;;;;;9.81;42.19;101912.94;5091389;28;19928;-71
2021/04/15 12:21:52;;;;;;;;;;;;;;;9.86;42.71;101913.50;5091645;28;20037;-71
2021/04/15 12:24:22;;;;;;;;;;;;;;;10.25;42.93;101911.19;5056163;28;20508;-71
2021/04/15 12:26:51;;;;;;;;;;;;;;;9.79;43.16;101904.00;5091297;28;19931;-71
2021/04/15 12:29:21;;;;;;;;;;;;;;;9.76;43.03;101906.91;5090935;28;19931;-71
2021/04/15 12:31:48;;;;;;;;;;;;;;;9.62;43.65;101902.25;5090339;28;20424;-71
2021/04/15 12:34:21;;;;;;;;;;;;;;;9.66;45.58;101907.44;5091573;28;19969;-71
2021/04/15 12:36:55;;;;;;;;;;;;;;;9.87;43.83;101907.13;5090855;28;19924;-71
2021/04/15 12:39:23;;;;;;;;;;;;;;;9.75;43.50;101910.56;5073066;28;19993;-71
2021/04/15 12:41:49;;;;;;;;;;;;;;;9.62;43.51;101908.56;5073176;28;19931;-71
2021/04/15 12:44:17;;;;;;;;;;;;;;;9.68;45.22;101905.50;5091778;28;19924;-71
2021/04/15 12:46:44;;;;;;;;;;;;;;;9.69;45.25;101901.81;5091040;28;20433;-71
2021/04/15 12:49:11;;;;;;;;;;;;;;;9.59;44.63;101902.44;5091052;28;19924;-71
2021/04/15 12:51:39;;;;;;;;;;;;;;;9.05;42.51;101909.13;5090869;28;19924;-71
2021/04/15 12:54:06;;;;;;;;;;;;;;;8.78;42.84;101911.50;5072561;28;19997;-71
2021/04/15 12:56:34;;;;;;;;;;;;;;;8.82;43.56;101905.00;5091471;28;19955;-71